sensor_id;sensor_type;location;lat;lon;timestamp;pressure;altitude;pressure_sealevel;temperature;humidity
62126;BME280;69591;53.282;6.150;2023-05-12T00:00:13;101920.75;;;18.98;60.25
62126;BME280;69591;53.282;6.150;2023-05-12T00:01:16;101923.47;;;18.98;60.14
62126;BME280;69591;53.282;6.150;2023-05-12T00:02:19;101920.75;;;18.98;60.39
62126;BME280;69591;53.282;6.150;2023-05-12T00:03:21;101918.00;;;18.98;60.29
62126;BME280;69591;53.282;6.150;2023-05-12T00:04:23;101913.31;;;18.99;60.24
62126;BME280;69591;53.282;6.150;2023-05-12T00:05:24;101912.53;;;18.98;60.24
62126;BME280;69591;53.282;6.150;2023-05-12T00:06:26;101909.78;;;18.98;60.14
62126;BME280;69591;53.282;6.150;2023-05-12T00:07:27;101915.25;;;18.98;60.12
62126;BME280;69591;53.282;6.150;2023-05-12T00:08:29;101909.03;;;18.98;60.15
62126;BME280;69591;53.282;6.150;2023-05-12T00:09:30;101910.16;;;18.97;60.26
62126;BME280;69591;53.282;6.150;2023-05-12T00:10:32;101909.03;;;18.98;60.25
62126;BME280;69591;53.282;6.150;2023-05-12T00:11:34;101916.44;;;18.97;60.19
62126;BME280;69591;53.282;6.150;2023-05-12T00:12:36;101910.97;;;18.97;60.30
62126;BME280;69591;53.282;6.150;2023-05-12T00:13:37;101909.38;;;18.96;60.30
62126;BME280;69591;53.282;6.150;2023-05-12T00:14:39;101916.44;;;18.97;60.38
62126;BME280;69591;53.282;6.150;2023-05-12T00:15:40;101911.75;;;18.98;60.27
62126;BME280;69591;53.282;6.150;2023-05-12T00:16:42;101914.06;;;18.96;60.32
62126;BME280;69591;53.282;6.150;2023-05-12T00:17:45;101916.44;;;18.97;60.20
62126;BME280;69591;53.282;6.150;2023-05-12T00:18:46;101919.53;;;18.96;60.21
62126;BME280;69591;53.282;6.150;2023-05-12T00:19:48;101917.56;;;18.96;60.28
62126;BME280;69591;53.282;6.150;2023-05-12T00:20:49;101914.84;;;18.96;60.24
62126;BME280;69591;53.282;6.150;2023-05-12T00:21:51;101922.28;;;18.96;60.30
62126;BME280;69591;53.282;6.150;2023-05-12T00:22:53;101916.81;;;18.96;60.27
62126;BME280;69591;53.282;6.150;2023-05-12T00:23:54;101920.31;;;18.96;60.31
62126;BME280;69591;53.282;6.150;2023-05-12T00:24:56;101925.78;;;18.96;60.35
62126;BME280;69591;53.282;6.150;2023-05-12T00:25:57;101925.03;;;18.96;60.22
62126;BME280;69591;53.282;6.150;2023-05-12T00:26:59;101918.75;;;18.95;60.19
62126;BME280;69591;53.282;6.150;2023-05-12T00:28:01;101927.75;;;18.96;60.38
62126;BME280;69591;53.282;6.150;2023-05-12T00:29:02;101917.94;;;18.95;60.27
62126;BME280;69591;53.282;6.150;2023-05-12T00:30:05;101924.22;;;18.95;60.25
62126;BME280;69591;53.282;6.150;2023-05-12T00:31:06;101926.16;;;18.95;60.27
62126;BME280;69591;53.282;6.150;2023-05-12T00:32:08;101917.19;;;18.94;60.11
62126;BME280;69591;53.282;6.150;2023-05-12T00:33:11;101926.16;;;18.95;60.21
62126;BME280;69591;53.282;6.150;2023-05-12T00:34:12;101922.66;;;18.94;60.18
62126;BME280;69591;53.282;6.150;2023-05-12T00:35:14;101926.97;;;18.95;60.26
62126;BME280;69591;53.282;6.150;2023-05-12T00:36:16;101919.91;;;18.94;60.18
62126;BME280;69591;53.282;6.150;2023-05-12T00:37:17;101928.91;;;18.95;60.27
62126;BME280;69591;53.282;6.150;2023-05-12T00:38:19;101921.84;;;18.94;60.29
62126;BME280;69591;53.282;6.150;2023-05-12T00:39:20;101925.41;;;18.94;60.39
62126;BME280;69591;53.282;6.150;2023-05-12T00:40:22;101927.34;;;18.94;60.18
62126;BME280;69591;53.282;6.150;2023-05-12T00:41:23;101927.34;;;18.94;60.32
62126;BME280;69591;53.282;6.150;2023-05-12T00:42:25;101922.66;;;18.94;60.30
62126;BME280;69591;53.282;6.150;2023-05-12T00:43:26;101921.06;;;18.93;60.35
62126;BME280;69591;53.282;6.150;2023-05-12T00:44:28;101925.41;;;18.94;60.22
62126;BME280;69591;53.282;6.150;2023-05-12T00:45:29;101921.06;;;18.93;60.26
62126;BME280;69591;53.282;6.150;2023-05-12T00:46:31;101924.59;;;18.94;60.34
62126;BME280;69591;53.282;6.150;2023-05-12T00:47:33;101920.28;;;18.93;60.31
62126;BME280;69591;53.282;6.150;2023-05-12T00:48:36;101918.31;;;18.93;60.33
62126;BME280;69591;53.282;6.150;2023-05-12T00:49:37;101926.53;;;18.93;60.31
62126;BME280;69591;53.282;6.150;2023-05-12T00:50:39;101923.03;;;18.93;60.35
62126;BME280;69591;53.282;6.150;2023-05-12T00:51:41;101915.97;;;18.92;60.23
62126;BME280;69591;53.282;6.150;2023-05-12T00:52:43;101917.56;;;18.93;60.17
62126;BME280;69591;53.282;6.150;2023-05-12T00:53:44;101926.53;;;18.93;60.22
62126;BME280;69591;53.282;6.150;2023-05-12T00:54:50;101924.97;;;18.92;60.17
62126;BME280;69591;53.282;6.150;2023-05-12T00:55:52;101918.69;;;18.92;60.23
62126;BME280;69591;53.282;6.150;2023-05-12T00:56:54;101919.50;;;18.92;60.26
62126;BME280;69591;53.282;6.150;2023-05-12T00:57:57;101921.44;;;18.92;60.23
62126;BME280;69591;53.282;6.150;2023-05-12T00:59:00;101916.75;;;18.92;60.36
62126;BME280;69591;53.282;6.150;2023-05-12T01:00:02;101921.44;;;18.92;60.25
62126;BME280;69591;53.282;6.150;2023-05-12T01:01:04;101923.41;;;18.91;60.26
62126;BME280;69591;53.282;6.150;2023-05-12T01:02:06;101915.19;;;18.91;60.36
62126;BME280;69591;53.282;6.150;2023-05-12T01:03:08;101916.75;;;18.92;60.29
62126;BME280;69591;53.282;6.150;2023-05-12T01:04:11;101916.75;;;18.92;60.30
62126;BME280;69591;53.282;6.150;2023-05-12T01:05:13;101912.44;;;18.91;60.57
62126;BME280;69591;53.282;6.150;2023-05-12T01:06:16;101919.50;;;18.92;60.15
62126;BME280;69591;53.282;6.150;2023-05-12T01:07:19;101917.94;;;18.91;60.30
62126;BME280;69591;53.282;6.150;2023-05-12T01:08:22;101912.44;;;18.91;60.15
62126;BME280;69591;53.282;6.150;2023-05-12T01:09:25;101912.44;;;18.91;60.17
62126;BME280;69591;53.282;6.150;2023-05-12T01:10:28;101916.34;;;18.90;60.18
62126;BME280;69591;53.282;6.150;2023-05-12T01:11:30;101914.38;;;18.91;60.28
62126;BME280;69591;53.282;6.150;2023-05-12T01:12:31;101916.34;;;18.90;60.21
62126;BME280;69591;53.282;6.150;2023-05-12T01:13:34;101921.81;;;18.90;60.25
62126;BME280;69591;53.282;6.150;2023-05-12T01:14:35;101919.06;;;18.90;60.27
62126;BME280;69591;53.282;6.150;2023-05-12T01:15:38;101913.59;;;18.90;60.25
62126;BME280;69591;53.282;6.150;2023-05-12T01:16:42;101916.34;;;18.90;60.32
62126;BME280;69591;53.282;6.150;2023-05-12T01:17:46;101922.59;;;18.91;60.38
62126;BME280;69591;53.282;6.150;2023-05-12T01:18:53;101912.81;;;18.90;60.25
62126;BME280;69591;53.282;6.150;2023-05-12T01:19:57;101912.44;;;18.91;60.27
62126;BME280;69591;53.282;6.150;2023-05-12T01:21:00;101915.56;;;18.90;60.26
62126;BME280;69591;53.282;6.150;2023-05-12T01:22:02;101917.13;;;18.91;60.43
62126;BME280;69591;53.282;6.150;2023-05-12T01:23:04;101921.81;;;18.90;60.30
62126;BME280;69591;53.282;6.150;2023-05-12T01:24:06;101908.13;;;18.90;60.20
62126;BME280;69591;53.282;6.150;2023-05-12T01:25:10;101910.09;;;18.90;60.18
62126;BME280;69591;53.282;6.150;2023-05-12T01:26:13;101908.13;;;18.90;60.26
62126;BME280;69591;53.282;6.150;2023-05-12T01:27:15;101909.28;;;18.89;60.35
62126;BME280;69591;53.282;6.150;2023-05-12T01:28:17;101909.28;;;18.89;60.43
62126;BME280;69591;53.282;6.150;2023-05-12T01:29:19;101904.63;;;18.90;60.26
62126;BME280;69591;53.282;6.150;2023-05-12T01:30:21;101907.72;;;18.88;60.20
62126;BME280;69591;53.282;6.150;2023-05-12T01:31:24;101908.50;;;18.89;60.29
62126;BME280;69591;53.282;6.150;2023-05-12T01:32:26;101909.28;;;18.89;60.38
62126;BME280;69591;53.282;6.150;2023-05-12T01:33:28;101910.47;;;18.88;60.20
62126;BME280;69591;53.282;6.150;2023-05-12T01:34:30;101908.50;;;18.89;60.26
62126;BME280;69591;53.282;6.150;2023-05-12T01:35:32;101907.72;;;18.88;60.33
62126;BME280;69591;53.282;6.150;2023-05-12T01:36:35;101909.28;;;18.89;60.23
62126;BME280;69591;53.282;6.150;2023-05-12T01:37:36;101913.19;;;18.88;60.25
62126;BME280;69591;53.282;6.150;2023-05-12T01:38:39;101902.25;;;18.88;60.29
62126;BME280;69591;53.282;6.150;2023-05-12T01:39:41;101907.72;;;18.88;60.26
62126;BME280;69591;53.282;6.150;2023-05-12T01:40:48;101913.19;;;18.88;60.31
62126;BME280;69591;53.282;6.150;2023-05-12T01:41:52;101908.88;;;18.87;60.21
62126;BME280;69591;53.282;6.150;2023-05-12T01:42:53;101905.31;;;18.87;60.14
62126;BME280;69591;53.282;6.150;2023-05-12T01:43:55;101911.59;;;18.87;60.32
62126;BME280;69591;53.282;6.150;2023-05-12T01:44:57;101910.47;;;18.88;60.27
62126;BME280;69591;53.282;6.150;2023-05-12T01:45:59;101911.59;;;18.87;60.53
62126;BME280;69591;53.282;6.150;2023-05-12T01:47:03;101914.34;;;18.87;60.31
62126;BME280;69591;53.282;6.150;2023-05-12T01:48:06;101917.88;;;18.88;60.28
62126;BME280;69591;53.282;6.150;2023-05-12T01:49:09;101916.28;;;18.87;60.34
62126;BME280;69591;53.282;6.150;2023-05-12T01:50:11;101917.06;;;18.87;60.39
62126;BME280;69591;53.282;6.150;2023-05-12T01:51:14;101922.53;;;18.87;60.34
62126;BME280;69591;53.282;6.150;2023-05-12T01:52:16;101915.94;;;18.88;60.35
62126;BME280;69591;53.282;6.150;2023-05-12T01:53:17;101918.25;;;18.86;60.31
62126;BME280;69591;53.282;6.150;2023-05-12T01:54:19;101923.34;;;18.88;60.42
62126;BME280;69591;53.282;6.150;2023-05-12T01:55:21;101922.53;;;18.87;60.21
62126;BME280;69591;53.282;6.150;2023-05-12T01:56:29;101922.53;;;18.87;60.38
62126;BME280;69591;53.282;6.150;2023-05-12T01:57:32;101915.50;;;18.86;60.18
62126;BME280;69591;53.282;6.150;2023-05-12T01:58:34;101914.72;;;18.86;60.33
62126;BME280;69591;53.282;6.150;2023-05-12T01:59:36;101921.75;;;18.87;60.32
62126;BME280;69591;53.282;6.150;2023-05-12T02:00:39;101920.19;;;18.86;60.23
62126;BME280;69591;53.282;6.150;2023-05-12T02:01:47;101920.97;;;18.86;60.31
62126;BME280;69591;53.282;6.150;2023-05-12T02:02:54;101926.44;;;18.86;60.27
62126;BME280;69591;53.282;6.150;2023-05-12T02:03:56;101927.22;;;18.87;60.23
62126;BME280;69591;53.282;6.150;2023-05-12T02:04:59;101919.38;;;18.85;60.28
62126;BME280;69591;53.282;6.150;2023-05-12T02:06:00;101923.72;;;18.86;60.33
62126;BME280;69591;53.282;6.150;2023-05-12T02:07:02;101922.91;;;18.86;60.33
62126;BME280;69591;53.282;6.150;2023-05-12T02:08:03;101924.84;;;18.85;60.32
62126;BME280;69591;53.282;6.150;2023-05-12T02:09:05;101915.09;;;18.84;60.34
62126;BME280;69591;53.282;6.150;2023-05-12T02:10:07;101920.19;;;18.86;60.28
62126;BME280;69591;53.282;6.150;2023-05-12T02:11:09;101919.38;;;18.85;60.28
62126;BME280;69591;53.282;6.150;2023-05-12T02:12:12;101922.13;;;18.85;60.24
62126;BME280;69591;53.282;6.150;2023-05-12T02:13:14;101921.34;;;18.85;60.31
62126;BME280;69591;53.282;6.150;2023-05-12T02:14:16;101919.38;;;18.85;60.33
62126;BME280;69591;53.282;6.150;2023-05-12T02:15:18;101919.38;;;18.85;60.36
62126;BME280;69591;53.282;6.150;2023-05-12T02:16:20;101921.34;;;18.85;60.28
62126;BME280;69591;53.282;6.150;2023-05-12T02:17:22;101923.28;;;18.84;60.39
62126;BME280;69591;53.282;6.150;2023-05-12T02:18:24;101920.19;;;18.86;60.26
62126;BME280;69591;53.282;6.150;2023-05-12T02:19:26;101922.13;;;18.85;60.20
62126;BME280;69591;53.282;6.150;2023-05-12T02:20:29;101920.56;;;18.84;60.20
62126;BME280;69591;53.282;6.150;2023-05-12T02:21:30;101910.78;;;18.83;60.24
62126;BME280;69591;53.282;6.150;2023-05-12T02:22:32;101917.81;;;18.84;60.32
62126;BME280;69591;53.282;6.150;2023-05-12T02:23:34;101915.09;;;18.84;60.31
62126;BME280;69591;53.282;6.150;2023-05-12T02:24:36;101921.34;;;18.85;60.38
62126;BME280;69591;53.282;6.150;2023-05-12T02:25:37;101921.72;;;18.83;60.32
62126;BME280;69591;53.282;6.150;2023-05-12T02:26:39;101917.00;;;18.84;60.41
62126;BME280;69591;53.282;6.150;2023-05-12T02:27:40;101915.09;;;18.84;60.26
62126;BME280;69591;53.282;6.150;2023-05-12T02:28:44;101920.91;;;18.83;60.31
62126;BME280;69591;53.282;6.150;2023-05-12T02:29:46;101916.25;;;18.83;60.32
62126;BME280;69591;53.282;6.150;2023-05-12T02:30:49;101916.25;;;18.83;60.33
62126;BME280;69591;53.282;6.150;2023-05-12T02:31:51;101921.72;;;18.83;60.41
62126;BME280;69591;53.282;6.150;2023-05-12T02:32:52;101916.25;;;18.83;60.43
62126;BME280;69591;53.282;6.150;2023-05-12T02:33:54;101916.25;;;18.83;60.35
62126;BME280;69591;53.282;6.150;2023-05-12T02:34:56;101916.25;;;18.83;60.34
62126;BME280;69591;53.282;6.150;2023-05-12T02:35:57;101918.19;;;18.83;60.34
62126;BME280;69591;53.282;6.150;2023-05-12T02:36:59;101910.78;;;18.83;60.32
62126;BME280;69591;53.282;6.150;2023-05-12T02:38:00;101916.25;;;18.83;60.22
62126;BME280;69591;53.282;6.150;2023-05-12T02:39:02;101919.75;;;18.84;60.38
62126;BME280;69591;53.282;6.150;2023-05-12T02:40:04;101921.72;;;18.83;60.37
62126;BME280;69591;53.282;6.150;2023-05-12T02:41:06;101909.19;;;18.82;60.38
62126;BME280;69591;53.282;6.150;2023-05-12T02:42:07;101912.72;;;18.83;60.29
62126;BME280;69591;53.282;6.150;2023-05-12T02:43:09;101914.66;;;18.82;60.31
62126;BME280;69591;53.282;6.150;2023-05-12T02:44:12;101914.66;;;18.82;60.35
62126;BME280;69591;53.282;6.150;2023-05-12T02:45:14;101920.13;;;18.82;60.16
62126;BME280;69591;53.282;6.150;2023-05-12T02:46:15;101918.19;;;18.83;60.37
62126;BME280;69591;53.282;6.150;2023-05-12T02:47:17;101923.66;;;18.83;60.37
62126;BME280;69591;53.282;6.150;2023-05-12T02:48:18;101907.63;;;18.81;60.38
62126;BME280;69591;53.282;6.150;2023-05-12T02:49:20;101924.03;;;18.81;60.26
62126;BME280;69591;53.282;6.150;2023-05-12T02:50:21;101920.13;;;18.82;60.41
62126;BME280;69591;53.282;6.150;2023-05-12T02:51:23;101919.34;;;18.82;60.34
62126;BME280;69591;53.282;6.150;2023-05-12T02:52:25;101919.34;;;18.82;60.30
62126;BME280;69591;53.282;6.150;2023-05-12T02:53:26;101915.81;;;18.81;60.39
62126;BME280;69591;53.282;6.150;2023-05-12T02:54:28;101921.28;;;18.81;60.24
62126;BME280;69591;53.282;6.150;2023-05-12T02:55:29;101920.13;;;18.82;60.34
62126;BME280;69591;53.282;6.150;2023-05-12T02:56:31;101918.56;;;18.81;60.42
62126;BME280;69591;53.282;6.150;2023-05-12T02:57:34;101924.03;;;18.81;60.40
62126;BME280;69591;53.282;6.150;2023-05-12T02:58:36;101924.03;;;18.81;60.33
62126;BME280;69591;53.282;6.150;2023-05-12T02:59:39;101925.97;;;18.81;60.39
62126;BME280;69591;53.282;6.150;2023-05-12T03:00:40;101917.00;;;18.80;60.40
62126;BME280;69591;53.282;6.150;2023-05-12T03:01:42;101923.22;;;18.81;60.42
62126;BME280;69591;53.282;6.150;2023-05-12T03:02:43;101925.19;;;18.80;60.35
62126;BME280;69591;53.282;6.150;2023-05-12T03:03:45;101933.41;;;18.80;60.34
62126;BME280;69591;53.282;6.150;2023-05-12T03:04:47;101934.19;;;18.81;60.29
62126;BME280;69591;53.282;6.150;2023-05-12T03:05:49;101927.94;;;18.80;60.40
62126;BME280;69591;53.282;6.150;2023-05-12T03:06:50;101927.94;;;18.80;60.37
62126;BME280;69591;53.282;6.150;2023-05-12T03:07:52;101925.19;;;18.80;60.33
62126;BME280;69591;53.282;6.150;2023-05-12T03:08:53;101927.13;;;18.80;60.38
62126;BME280;69591;53.282;6.150;2023-05-12T03:09:55;101927.94;;;18.80;60.42
62126;BME280;69591;53.282;6.150;2023-05-12T03:10:57;101933.41;;;18.80;60.34
62126;BME280;69591;53.282;6.150;2023-05-12T03:11:59;101938.09;;;18.80;60.37
62126;BME280;69591;53.282;6.150;2023-05-12T03:13:01;101926.34;;;18.79;60.49
62126;BME280;69591;53.282;6.150;2023-05-12T03:14:03;101923.59;;;18.79;60.52
62126;BME280;69591;53.282;6.150;2023-05-12T03:15:06;101928.31;;;18.79;60.47
62126;BME280;69591;53.282;6.150;2023-05-12T03:16:08;101926.34;;;18.79;60.40
62126;BME280;69591;53.282;6.150;2023-05-12T03:17:10;101923.59;;;18.79;60.34
62126;BME280;69591;53.282;6.150;2023-05-12T03:18:11;101923.59;;;18.79;60.48
62126;BME280;69591;53.282;6.150;2023-05-12T03:19:13;101925.56;;;18.79;60.37
62126;BME280;69591;53.282;6.150;2023-05-12T03:20:15;101925.56;;;18.79;60.37
62126;BME280;69591;53.282;6.150;2023-05-12T03:21:16;101915.41;;;18.79;60.30
62126;BME280;69591;53.282;6.150;2023-05-12T03:22:18;101920.88;;;18.79;60.45
62126;BME280;69591;53.282;6.150;2023-05-12T03:23:19;101924.78;;;18.78;60.49
62126;BME280;69591;53.282;6.150;2023-05-12T03:24:21;101927.50;;;18.78;60.38
62126;BME280;69591;53.282;6.150;2023-05-12T03:25:22;101925.56;;;18.79;60.52
62126;BME280;69591;53.282;6.150;2023-05-12T03:26:24;101924.78;;;18.78;60.34
62126;BME280;69591;53.282;6.150;2023-05-12T03:27:25;101931.03;;;18.79;60.34
62126;BME280;69591;53.282;6.150;2023-05-12T03:28:27;101922.84;;;18.79;60.46
62126;BME280;69591;53.282;6.150;2023-05-12T03:29:29;101922.03;;;18.78;60.49
62126;BME280;69591;53.282;6.150;2023-05-12T03:30:32;101926.72;;;18.78;60.41
62126;BME280;69591;53.282;6.150;2023-05-12T03:31:34;101930.25;;;18.78;60.46
62126;BME280;69591;53.282;6.150;2023-05-12T03:32:35;101922.03;;;18.78;60.41
62126;BME280;69591;53.282;6.150;2023-05-12T03:33:37;101927.50;;;18.78;60.43
62126;BME280;69591;53.282;6.150;2023-05-12T03:34:38;101921.25;;;18.78;60.48
62126;BME280;69591;53.282;6.150;2023-05-12T03:35:40;101919.31;;;18.78;60.52
62126;BME280;69591;53.282;6.150;2023-05-12T03:36:41;101918.50;;;18.78;60.47
62126;BME280;69591;53.282;6.150;2023-05-12T03:37:43;101923.22;;;18.77;60.43
62126;BME280;69591;53.282;6.150;2023-05-12T03:38:45;101917.72;;;18.77;60.36
62126;BME280;69591;53.282;6.150;2023-05-12T03:39:47;101929.44;;;18.78;60.49
62126;BME280;69591;53.282;6.150;2023-05-12T03:40:48;101924.78;;;18.78;60.49
62126;BME280;69591;53.282;6.150;2023-05-12T03:41:50;101929.44;;;18.78;60.38
62126;BME280;69591;53.282;6.150;2023-05-12T03:42:52;101929.44;;;18.78;60.49
62126;BME280;69591;53.282;6.150;2023-05-12T03:43:53;101921.25;;;18.78;60.43
62126;BME280;69591;53.282;6.150;2023-05-12T03:44:55;101927.50;;;18.78;60.47
62126;BME280;69591;53.282;6.150;2023-05-12T03:45:58;101926.72;;;18.78;60.42
62126;BME280;69591;53.282;6.150;2023-05-12T03:46:59;101927.88;;;18.77;60.74
62126;BME280;69591;53.282;6.150;2023-05-12T03:48:01;101928.69;;;18.77;60.40
62126;BME280;69591;53.282;6.150;2023-05-12T03:49:02;101928.69;;;18.77;60.55
62126;BME280;69591;53.282;6.150;2023-05-12T03:50:05;101932.97;;;18.78;60.34
62126;BME280;69591;53.282;6.150;2023-05-12T03:51:06;101926.72;;;18.78;60.49
62126;BME280;69591;53.282;6.150;2023-05-12T03:52:08;101929.44;;;18.78;60.40
62126;BME280;69591;53.282;6.150;2023-05-12T03:53:09;101931.41;;;18.77;60.52
62126;BME280;69591;53.282;6.150;2023-05-12T03:54:11;101932.19;;;18.78;60.21
62126;BME280;69591;53.282;6.150;2023-05-12T03:55:12;101934.91;;;18.78;60.50
62126;BME280;69591;53.282;6.150;2023-05-12T03:56:16;101926.72;;;18.78;60.44
62126;BME280;69591;53.282;6.150;2023-05-12T03:57:17;101931.41;;;18.77;60.42
62126;BME280;69591;53.282;6.150;2023-05-12T03:58:19;101936.09;;;18.77;60.40
62126;BME280;69591;53.282;6.150;2023-05-12T03:59:21;101932.97;;;18.78;60.50
62126;BME280;69591;53.282;6.150;2023-05-12T04:00:23;101928.69;;;18.77;60.36
62126;BME280;69591;53.282;6.150;2023-05-12T04:01:26;101929.44;;;18.78;60.46
62126;BME280;69591;53.282;6.150;2023-05-12T04:02:28;101937.66;;;18.78;60.28
62126;BME280;69591;53.282;6.150;2023-05-12T04:03:29;101935.28;;;18.76;60.51
62126;BME280;69591;53.282;6.150;2023-05-12T04:04:31;101936.88;;;18.77;60.35
62126;BME280;69591;53.282;6.150;2023-05-12T04:05:33;101934.16;;;18.77;60.40
62126;BME280;69591;53.282;6.150;2023-05-12T04:06:34;101936.88;;;18.77;60.35
62126;BME280;69591;53.282;6.150;2023-05-12T04:07:37;101934.16;;;18.77;60.53
62126;BME280;69591;53.282;6.150;2023-05-12T04:08:38;101930.63;;;18.77;60.49
62126;BME280;69591;53.282;6.150;2023-05-12T04:09:42;101939.63;;;18.77;60.50
62126;BME280;69591;53.282;6.150;2023-05-12T04:10:43;101934.16;;;18.77;60.45
62126;BME280;69591;53.282;6.150;2023-05-12T04:11:45;101928.69;;;18.77;60.45
62126;BME280;69591;53.282;6.150;2023-05-12T04:12:46;101936.09;;;18.77;60.51
62126;BME280;69591;53.282;6.150;2023-05-12T04:13:48;101933.34;;;18.77;60.44
62126;BME280;69591;53.282;6.150;2023-05-12T04:14:49;101929.44;;;18.78;60.52
62126;BME280;69591;53.282;6.150;2023-05-12T04:15:53;101931.41;;;18.77;60.44
62126;BME280;69591;53.282;6.150;2023-05-12T04:16:56;101933.34;;;18.77;60.41
62126;BME280;69591;53.282;6.150;2023-05-12T04:17:58;101927.09;;;18.76;60.43
62126;BME280;69591;53.282;6.150;2023-05-12T04:19:00;101933.34;;;18.77;60.50
62126;BME280;69591;53.282;6.150;2023-05-12T04:20:02;101939.63;;;18.77;60.45
62126;BME280;69591;53.282;6.150;2023-05-12T04:21:03;101933.34;;;18.77;60.40
62126;BME280;69591;53.282;6.150;2023-05-12T04:22:06;101936.09;;;18.77;60.62
62126;BME280;69591;53.282;6.150;2023-05-12T04:23:07;101944.28;;;18.77;60.46
62126;BME280;69591;53.282;6.150;2023-05-12T04:24:09;101943.50;;;18.76;60.55
62126;BME280;69591;53.282;6.150;2023-05-12T04:25:11;101944.28;;;18.77;60.53
62126;BME280;69591;53.282;6.150;2023-05-12T04:26:14;101939.97;;;18.76;60.46
62126;BME280;69591;53.282;6.150;2023-05-12T04:27:15;101938.03;;;18.76;60.47
62126;BME280;69591;53.282;6.150;2023-05-12T04:28:18;101944.28;;;18.77;60.45
62126;BME280;69591;53.282;6.150;2023-05-12T04:29:20;101938.03;;;18.76;60.43
62126;BME280;69591;53.282;6.150;2023-05-12T04:30:22;101932.56;;;18.76;60.60
62126;BME280;69591;53.282;6.150;2023-05-12T04:31:23;101939.63;;;18.77;60.43
62126;BME280;69591;53.282;6.150;2023-05-12T04:32:27;101934.16;;;18.77;60.67
62126;BME280;69591;53.282;6.150;2023-05-12T04:33:29;101943.50;;;18.76;60.50
62126;BME280;69591;53.282;6.150;2023-05-12T04:34:31;101938.03;;;18.76;60.47
62126;BME280;69591;53.282;6.150;2023-05-12T04:35:33;101940.75;;;18.76;60.46
62126;BME280;69591;53.282;6.150;2023-05-12T04:36:35;101943.50;;;18.76;60.44
62126;BME280;69591;53.282;6.150;2023-05-12T04:37:36;101935.28;;;18.76;60.54
62126;BME280;69591;53.282;6.150;2023-05-12T04:38:38;101944.28;;;18.77;60.44
62126;BME280;69591;53.282;6.150;2023-05-12T04:39:40;101940.75;;;18.76;60.55
62126;BME280;69591;53.282;6.150;2023-05-12T04:40:41;101943.50;;;18.76;60.47
62126;BME280;69591;53.282;6.150;2023-05-12T04:41:43;101937.22;;;18.76;60.42
62126;BME280;69591;53.282;6.150;2023-05-12T04:42:44;101945.44;;;18.76;60.50
62126;BME280;69591;53.282;6.150;2023-05-12T04:43:49;101943.50;;;18.76;60.29
62126;BME280;69591;53.282;6.150;2023-05-12T04:44:54;101946.22;;;18.76;60.54
62126;BME280;69591;53.282;6.150;2023-05-12T04:45:55;101946.22;;;18.76;60.50
62126;BME280;69591;53.282;6.150;2023-05-12T04:47:00;101947.03;;;18.77;60.54
62126;BME280;69591;53.282;6.150;2023-05-12T04:48:03;101949.78;;;18.77;60.55
62126;BME280;69591;53.282;6.150;2023-05-12T04:49:04;101947.84;;;18.77;60.46
62126;BME280;69591;53.282;6.150;2023-05-12T04:50:06;101942.34;;;18.77;60.45
62126;BME280;69591;53.282;6.150;2023-05-12T04:51:08;101947.03;;;18.77;60.58
62126;BME280;69591;53.282;6.150;2023-05-12T04:52:09;101943.50;;;18.76;60.51
62126;BME280;69591;53.282;6.150;2023-05-12T04:53:11;101948.97;;;18.76;60.53
62126;BME280;69591;53.282;6.150;2023-05-12T04:54:12;101956.03;;;18.77;60.62
62126;BME280;69591;53.282;6.150;2023-05-12T04:55:14;101947.84;;;18.77;60.49
62126;BME280;69591;53.282;6.150;2023-05-12T04:56:15;101947.03;;;18.77;60.43
62126;BME280;69591;53.282;6.150;2023-05-12T04:57:18;101950.56;;;18.77;60.53
62126;BME280;69591;53.282;6.150;2023-05-12T04:58:19;101955.25;;;18.77;60.54
62126;BME280;69591;53.282;6.150;2023-05-12T04:59:21;101951.34;;;18.78;60.58
62126;BME280;69591;53.282;6.150;2023-05-12T05:00:24;101945.09;;;18.77;60.53
62126;BME280;69591;53.282;6.150;2023-05-12T05:01:26;101950.56;;;18.77;60.55
62126;BME280;69591;53.282;6.150;2023-05-12T05:02:27;101952.13;;;18.78;60.59
62126;BME280;69591;53.282;6.150;2023-05-12T05:03:31;101951.34;;;18.78;60.47
62126;BME280;69591;53.282;6.150;2023-05-12T05:04:32;101952.13;;;18.78;60.51
62126;BME280;69591;53.282;6.150;2023-05-12T05:05:34;101957.59;;;18.78;60.53
62126;BME280;69591;53.282;6.150;2023-05-12T05:06:36;101956.03;;;18.77;60.39
62126;BME280;69591;53.282;6.150;2023-05-12T05:07:38;101960.34;;;18.78;60.48
62126;BME280;69591;53.282;6.150;2023-05-12T05:08:39;101958.78;;;18.77;60.49
62126;BME280;69591;53.282;6.150;2023-05-12T05:09:41;101957.59;;;18.78;60.53
62126;BME280;69591;53.282;6.150;2023-05-12T05:10:42;101957.59;;;18.78;60.53
62126;BME280;69591;53.282;6.150;2023-05-12T05:11:44;101957.59;;;18.78;60.63
62126;BME280;69591;53.282;6.150;2023-05-12T05:12:46;101964.66;;;18.79;60.56
62126;BME280;69591;53.282;6.150;2023-05-12T05:13:47;101965.00;;;18.78;60.46
62126;BME280;69591;53.282;6.150;2023-05-12T05:14:49;101965.81;;;18.78;60.59
62126;BME280;69591;53.282;6.150;2023-05-12T05:15:50;101967.38;;;18.79;60.52
62126;BME280;69591;53.282;6.150;2023-05-12T05:16:52;101972.84;;;18.79;60.59
62126;BME280;69591;53.282;6.150;2023-05-12T05:17:54;101983.03;;;18.79;60.50
62126;BME280;69591;53.282;6.150;2023-05-12T05:18:57;101970.13;;;18.79;60.59
62126;BME280;69591;53.282;6.150;2023-05-12T05:19:59;101984.59;;;18.80;60.55
62126;BME280;69591;53.282;6.150;2023-05-12T05:21:04;101983.03;;;18.79;60.49
62126;BME280;69591;53.282;6.150;2023-05-12T05:22:06;101988.13;;;18.80;60.50
62126;BME280;69591;53.282;6.150;2023-05-12T05:23:07;101981.06;;;18.79;60.60
62126;BME280;69591;53.282;6.150;2023-05-12T05:24:09;101982.66;;;18.80;60.61